sensor_id;sensor_type;location;lat;lon;timestamp;P1;durP1;ratioP1;P2;durP2;ratioP2
66175;SDS011;52977;44.816;20.538;2023-04-02T00:01:49;10.57;;;3.50;;
66175;SDS011;52977;44.816;20.538;2023-04-02T00:04:17;7.70;;;3.33;;
66175;SDS011;52977;44.816;20.538;2023-04-02T00:06:48;9.82;;;3.08;;
66175;SDS011;52977;44.816;20.538;2023-04-02T00:09:28;7.68;;;3.13;;
66175;SDS011;52977;44.816;20.538;2023-04-02T00:11:58;5.43;;;2.45;;
66175;SDS011;52977;44.816;20.538;2023-04-02T00:14:40;6.45;;;2.92;;
66175;SDS011;52977;44.816;20.538;2023-04-02T00:17:11;6.35;;;2.60;;
66175;SDS011;52977;44.816;20.538;2023-04-02T00:20:01;5.45;;;2.08;;
66175;SDS011;52977;44.816;20.538;2023-04-02T00:22:31;5.88;;;2.42;;
66175;SDS011;52977;44.816;20.538;2023-04-02T00:24:59;4.65;;;2.35;;
66175;SDS011;52977;44.816;20.538;2023-04-02T00:27:28;6.22;;;2.22;;
66175;SDS011;52977;44.816;20.538;2023-04-02T00:29:55;7.38;;;2.05;;
66175;SDS011;52977;44.816;20.538;2023-04-02T00:32:24;4.00;;;1.92;;
66175;SDS011;52977;44.816;20.538;2023-04-02T00:34:52;5.35;;;2.13;;
66175;SDS011;52977;44.816;20.538;2023-04-02T00:37:20;4.13;;;1.70;;
66175;SDS011;52977;44.816;20.538;2023-04-02T00:39:50;5.00;;;2.00;;
66175;SDS011;52977;44.816;20.538;2023-04-02T00:42:28;4.38;;;2.17;;
66175;SDS011;52977;44.816;20.538;2023-04-02T00:44:56;5.03;;;2.10;;
66175;SDS011;52977;44.816;20.538;2023-04-02T00:47:25;5.45;;;2.25;;
66175;SDS011;52977;44.816;20.538;2023-04-02T00:49:58;4.25;;;2.22;;
66175;SDS011;52977;44.816;20.538;2023-04-02T00:52:30;6.65;;;2.40;;
66175;SDS011;52977;44.816;20.538;2023-04-02T00:55:05;6.38;;;2.28;;
66175;SDS011;52977;44.816;20.538;2023-04-02T00:57:58;4.70;;;2.03;;
66175;SDS011;52977;44.816;20.538;2023-04-02T01:00:30;4.57;;;2.08;;
66175;SDS011;52977;44.816;20.538;2023-04-02T01:16:54;4.97;;;2.35;;
66175;SDS011;52977;44.816;20.538;2023-04-02T01:25:15;4.03;;;1.98;;
66175;SDS011;52977;44.816;20.538;2023-04-02T01:27:51;5.00;;;2.30;;
66175;SDS011;52977;44.816;20.538;2023-04-02T01:30:26;8.23;;;2.28;;
66175;SDS011;52977;44.816;20.538;2023-04-02T01:32:52;5.55;;;2.20;;
66175;SDS011;52977;44.816;20.538;2023-04-02T01:35:19;6.72;;;2.20;;
66175;SDS011;52977;44.816;20.538;2023-04-02T01:40:35;6.32;;;2.40;;
66175;SDS011;52977;44.816;20.538;2023-04-02T01:45:58;5.88;;;2.30;;
66175;SDS011;52977;44.816;20.538;2023-04-02T01:48:29;5.78;;;2.13;;
66175;SDS011;52977;44.816;20.538;2023-04-02T01:50:56;6.85;;;2.55;;
66175;SDS011;52977;44.816;20.538;2023-04-02T01:53:26;5.55;;;2.50;;
66175;SDS011;52977;44.816;20.538;2023-04-02T01:55:59;9.30;;;2.90;;
66175;SDS011;52977;44.816;20.538;2023-04-02T01:58:27;5.32;;;2.30;;
66175;SDS011;52977;44.816;20.538;2023-04-02T02:03:46;5.28;;;2.30;;
66175;SDS011;52977;44.816;20.538;2023-04-02T02:06:16;6.95;;;2.38;;
66175;SDS011;52977;44.816;20.538;2023-04-02T02:08:46;5.07;;;2.42;;
66175;SDS011;52977;44.816;20.538;2023-04-02T02:11:17;5.47;;;2.15;;
66175;SDS011;52977;44.816;20.538;2023-04-02T02:13:54;5.65;;;2.30;;
66175;SDS011;52977;44.816;20.538;2023-04-02T02:16:25;5.57;;;2.20;;
66175;SDS011;52977;44.816;20.538;2023-04-02T02:18:53;5.75;;;2.03;;
66175;SDS011;52977;44.816;20.538;2023-04-02T02:21:28;5.72;;;2.38;;
66175;SDS011;52977;44.816;20.538;2023-04-02T02:24:16;5.90;;;2.28;;
66175;SDS011;52977;44.816;20.538;2023-04-02T02:26:45;5.93;;;2.50;;
66175;SDS011;52977;44.816;20.538;2023-04-02T02:29:15;4.22;;;2.17;;
66175;SDS011;52977;44.816;20.538;2023-04-02T02:31:45;6.47;;;2.25;;
66175;SDS011;52977;44.816;20.538;2023-04-02T02:34:17;5.63;;;2.35;;
66175;SDS011;52977;44.816;20.538;2023-04-02T02:36:51;8.13;;;2.47;;
66175;SDS011;52977;44.816;20.538;2023-04-02T02:42:20;6.65;;;2.30;;
66175;SDS011;52977;44.816;20.538;2023-04-02T02:44:59;5.38;;;2.17;;
66175;SDS011;52977;44.816;20.538;2023-04-02T02:47:30;4.70;;;2.13;;
66175;SDS011;52977;44.816;20.538;2023-04-02T02:50:02;6.07;;;2.53;;
66175;SDS011;52977;44.816;20.538;2023-04-02T02:52:36;5.23;;;2.20;;
66175;SDS011;52977;44.816;20.538;2023-04-02T02:55:14;5.50;;;2.35;;
66175;SDS011;52977;44.816;20.538;2023-04-02T02:57:52;4.82;;;2.15;;
66175;SDS011;52977;44.816;20.538;2023-04-02T03:00:27;5.13;;;1.83;;
66175;SDS011;52977;44.816;20.538;2023-04-02T03:02:56;5.35;;;2.10;;
66175;SDS011;52977;44.816;20.538;2023-04-02T03:05:25;5.32;;;2.13;;
66175;SDS011;52977;44.816;20.538;2023-04-02T03:07:57;4.78;;;1.90;;
66175;SDS011;52977;44.816;20.538;2023-04-02T03:19:01;4.63;;;1.92;;
66175;SDS011;52977;44.816;20.538;2023-04-02T03:21:38;4.45;;;1.70;;
66175;SDS011;52977;44.816;20.538;2023-04-02T03:27:29;4.85;;;2.35;;
66175;SDS011;52977;44.816;20.538;2023-04-02T03:32:53;6.32;;;2.28;;
66175;SDS011;52977;44.816;20.538;2023-04-02T03:35:28;7.40;;;2.28;;
66175;SDS011;52977;44.816;20.538;2023-04-02T03:38:01;4.93;;;2.00;;
66175;SDS011;52977;44.816;20.538;2023-04-02T03:40:42;5.90;;;2.05;;
66175;SDS011;52977;44.816;20.538;2023-04-02T03:43:19;5.03;;;2.10;;
66175;SDS011;52977;44.816;20.538;2023-04-02T03:46:01;5.60;;;1.95;;
66175;SDS011;52977;44.816;20.538;2023-04-02T03:51:53;4.00;;;1.83;;
66175;SDS011;52977;44.816;20.538;2023-04-02T03:54:23;4.70;;;1.90;;
66175;SDS011;52977;44.816;20.538;2023-04-02T03:56:50;4.18;;;1.63;;
66175;SDS011;52977;44.816;20.538;2023-04-02T04:04:47;4.15;;;1.67;;
66175;SDS011;52977;44.816;20.538;2023-04-02T04:07:27;4.07;;;1.50;;
66175;SDS011;52977;44.816;20.538;2023-04-02T04:10:06;5.53;;;2.00;;
66175;SDS011;52977;44.816;20.538;2023-04-02T04:12:41;4.20;;;1.80;;
66175;SDS011;52977;44.816;20.538;2023-04-02T04:23:33;5.78;;;1.90;;
66175;SDS011;52977;44.816;20.538;2023-04-02T04:26:06;4.75;;;1.73;;
66175;SDS011;52977;44.816;20.538;2023-04-02T04:35:07;5.25;;;2.13;;
66175;SDS011;52977;44.816;20.538;2023-04-02T04:37:44;4.60;;;1.85;;
66175;SDS011;52977;44.816;20.538;2023-04-02T04:40:30;3.95;;;1.45;;
66175;SDS011;52977;44.816;20.538;2023-04-02T04:43:00;4.95;;;1.73;;
66175;SDS011;52977;44.816;20.538;2023-04-02T04:45:40;3.15;;;1.55;;
66175;SDS011;52977;44.816;20.538;2023-04-02T04:48:45;3.13;;;1.57;;
66175;SDS011;52977;44.816;20.538;2023-04-02T04:51:19;2.97;;;1.30;;
66175;SDS011;52977;44.816;20.538;2023-04-02T04:53:47;3.88;;;1.85;;
66175;SDS011;52977;44.816;20.538;2023-04-02T04:58:58;5.55;;;1.73;;
66175;SDS011;52977;44.816;20.538;2023-04-02T05:01:36;3.58;;;1.65;;
66175;SDS011;52977;44.816;20.538;2023-04-02T05:07:18;4.40;;;1.48;;
66175;SDS011;52977;44.816;20.538;2023-04-02T05:12:42;4.18;;;1.90;;
66175;SDS011;52977;44.816;20.538;2023-04-02T05:18:38;4.95;;;2.00;;
66175;SDS011;52977;44.816;20.538;2023-04-02T05:20:51;4.63;;;1.80;;
66175;SDS011;52977;44.816;20.538;2023-04-02T05:23:26;3.90;;;1.70;;
66175;SDS011;52977;44.816;20.538;2023-04-02T05:26:10;5.03;;;1.90;;
66175;SDS011;52977;44.816;20.538;2023-04-02T05:34:11;5.53;;;2.33;;
66175;SDS011;52977;44.816;20.538;2023-04-02T05:36:39;4.60;;;2.13;;
66175;SDS011;52977;44.816;20.538;2023-04-02T05:39:09;7.20;;;2.20;;
66175;SDS011;52977;44.816;20.538;2023-04-02T05:41:43;6.45;;;2.70;;
66175;SDS011;52977;44.816;20.538;2023-04-02T05:44:24;3.78;;;1.98;;
66175;SDS011;52977;44.816;20.538;2023-04-02T05:46:58;8.55;;;2.53;;
66175;SDS011;52977;44.816;20.538;2023-04-02T05:52:49;9.80;;;2.90;;
66175;SDS011;52977;44.816;20.538;2023-04-02T05:55:29;5.75;;;3.03;;
66175;SDS011;52977;44.816;20.538;2023-04-02T05:58:02;6.03;;;2.85;;
66175;SDS011;52977;44.816;20.538;2023-04-02T06:00:42;8.52;;;3.30;;
66175;SDS011;52977;44.816;20.538;2023-04-02T06:06:13;8.18;;;4.75;;
66175;SDS011;52977;44.816;20.538;2023-04-02T06:08:47;9.98;;;3.88;;
66175;SDS011;52977;44.816;20.538;2023-04-02T06:11:25;7.55;;;3.40;;
66175;SDS011;52977;44.816;20.538;2023-04-02T06:13:57;6.88;;;3.05;;
66175;SDS011;52977;44.816;20.538;2023-04-02T06:16:25;8.48;;;3.55;;
66175;SDS011;52977;44.816;20.538;2023-04-02T06:18:52;8.38;;;3.78;;
66175;SDS011;52977;44.816;20.538;2023-04-02T06:21:19;11.68;;;3.78;;
66175;SDS011;52977;44.816;20.538;2023-04-02T06:23:54;8.93;;;3.28;;
66175;SDS011;52977;44.816;20.538;2023-04-02T06:26:32;7.15;;;3.10;;
66175;SDS011;52977;44.816;20.538;2023-04-02T06:29:19;9.45;;;3.55;;
66175;SDS011;52977;44.816;20.538;2023-04-02T06:32:13;7.90;;;3.45;;
66175;SDS011;52977;44.816;20.538;2023-04-02T06:34:42;7.72;;;3.75;;
66175;SDS011;52977;44.816;20.538;2023-04-02T06:39:48;12.32;;;5.03;;
66175;SDS011;52977;44.816;20.538;2023-04-02T06:42:20;16.38;;;6.35;;
66175;SDS011;52977;44.816;20.538;2023-04-02T06:45:20;14.73;;;5.53;;
66175;SDS011;52977;44.816;20.538;2023-04-02T06:48:14;7.88;;;4.05;;
66175;SDS011;52977;44.816;20.538;2023-04-02T06:50:47;8.15;;;3.70;;
66175;SDS011;52977;44.816;20.538;2023-04-02T06:53:36;7.85;;;3.33;;
66175;SDS011;52977;44.816;20.538;2023-04-02T06:56:25;4.60;;;2.45;;
66175;SDS011;52977;44.816;20.538;2023-04-02T06:59:05;7.35;;;2.47;;
66175;SDS011;52977;44.816;20.538;2023-04-02T07:01:35;4.45;;;2.05;;
66175;SDS011;52977;44.816;20.538;2023-04-02T07:04:05;5.32;;;2.38;;
66175;SDS011;52977;44.816;20.538;2023-04-02T07:06:37;4.95;;;2.50;;
66175;SDS011;52977;44.816;20.538;2023-04-02T07:09:03;6.13;;;3.00;;
66175;SDS011;52977;44.816;20.538;2023-04-02T07:11:33;6.70;;;2.58;;
66175;SDS011;52977;44.816;20.538;2023-04-02T07:14:03;5.05;;;2.30;;
66175;SDS011;52977;44.816;20.538;2023-04-02T07:16:30;6.20;;;2.20;;
66175;SDS011;52977;44.816;20.538;2023-04-02T07:18:58;4.50;;;2.00;;
66175;SDS011;52977;44.816;20.538;2023-04-02T07:21:27;4.85;;;2.13;;
66175;SDS011;52977;44.816;20.538;2023-04-02T07:23:55;5.00;;;2.20;;
66175;SDS011;52977;44.816;20.538;2023-04-02T07:26:22;5.82;;;2.38;;
66175;SDS011;52977;44.816;20.538;2023-04-02T07:31:20;3.83;;;1.55;;
66175;SDS011;52977;44.816;20.538;2023-04-02T07:33:49;4.05;;;1.83;;
66175;SDS011;52977;44.816;20.538;2023-04-02T07:36:16;4.30;;;2.20;;
66175;SDS011;52977;44.816;20.538;2023-04-02T07:38:45;4.20;;;1.73;;
66175;SDS011;52977;44.816;20.538;2023-04-02T07:41:11;5.45;;;2.47;;
66175;SDS011;52977;44.816;20.538;2023-04-02T07:43:38;4.20;;;2.08;;
66175;SDS011;52977;44.816;20.538;2023-04-02T07:46:05;7.25;;;2.40;;
66175;SDS011;52977;44.816;20.538;2023-04-02T07:48:31;8.73;;;2.88;;
66175;SDS011;52977;44.816;20.538;2023-04-02T07:50:58;9.05;;;2.95;;
66175;SDS011;52977;44.816;20.538;2023-04-02T07:53:31;7.05;;;3.00;;
66175;SDS011;52977;44.816;20.538;2023-04-02T07:55:58;7.43;;;3.50;;
66175;SDS011;52977;44.816;20.538;2023-04-02T07:58:25;10.38;;;3.55;;
66175;SDS011;52977;44.816;20.538;2023-04-02T08:00:52;8.95;;;3.60;;
66175;SDS011;52977;44.816;20.538;2023-04-02T08:03:17;5.88;;;3.40;;
66175;SDS011;52977;44.816;20.538;2023-04-02T08:05:48;6.95;;;3.28;;
66175;SDS011;52977;44.816;20.538;2023-04-02T08:08:17;8.02;;;3.45;;
66175;SDS011;52977;44.816;20.538;2023-04-02T08:10:43;13.90;;;3.42;;
66175;SDS011;52977;44.816;20.538;2023-04-02T08:13:09;6.07;;;2.75;;
66175;SDS011;52977;44.816;20.538;2023-04-02T08:15:34;5.82;;;2.65;;
66175;SDS011;52977;44.816;20.538;2023-04-02T08:18:01;7.13;;;2.88;;
66175;SDS011;52977;44.816;20.538;2023-04-02T08:20:27;5.43;;;2.50;;
66175;SDS011;52977;44.816;20.538;2023-04-02T08:22:53;5.07;;;2.20;;
66175;SDS011;52977;44.816;20.538;2023-04-02T08:25:19;6.00;;;2.40;;
66175;SDS011;52977;44.816;20.538;2023-04-02T08:27:46;3.78;;;1.90;;
66175;SDS011;52977;44.816;20.538;2023-04-02T08:30:13;4.90;;;2.28;;
66175;SDS011;52977;44.816;20.538;2023-04-02T08:32:42;3.97;;;2.03;;
66175;SDS011;52977;44.816;20.538;2023-04-02T08:35:12;5.55;;;1.80;;
66175;SDS011;52977;44.816;20.538;2023-04-02T08:37:41;5.57;;;2.20;;
66175;SDS011;52977;44.816;20.538;2023-04-02T08:40:16;4.03;;;2.08;;
66175;SDS011;52977;44.816;20.538;2023-04-02T08:48:03;5.10;;;1.98;;
66175;SDS011;52977;44.816;20.538;2023-04-02T08:50:32;4.05;;;1.88;;
66175;SDS011;52977;44.816;20.538;2023-04-02T08:53:04;6.43;;;1.80;;
66175;SDS011;52977;44.816;20.538;2023-04-02T08:55:47;3.67;;;1.80;;
66175;SDS011;52977;44.816;20.538;2023-04-02T09:00:56;5.43;;;2.35;;
66175;SDS011;52977;44.816;20.538;2023-04-02T09:03:45;5.97;;;2.45;;
66175;SDS011;52977;44.816;20.538;2023-04-02T09:06:16;5.50;;;2.60;;
66175;SDS011;52977;44.816;20.538;2023-04-02T09:08:44;5.47;;;2.47;;
66175;SDS011;52977;44.816;20.538;2023-04-02T09:14:21;5.65;;;2.38;;
66175;SDS011;52977;44.816;20.538;2023-04-02T09:16:54;5.28;;;2.28;;
66175;SDS011;52977;44.816;20.538;2023-04-02T09:19:28;7.50;;;3.30;;
66175;SDS011;52977;44.816;20.538;2023-04-02T09:22:03;6.47;;;3.10;;
66175;SDS011;52977;44.816;20.538;2023-04-02T09:24:31;5.00;;;2.58;;
66175;SDS011;52977;44.816;20.538;2023-04-02T09:26:58;6.40;;;2.40;;
66175;SDS011;52977;44.816;20.538;2023-04-02T09:29:36;5.93;;;2.50;;
66175;SDS011;52977;44.816;20.538;2023-04-02T09:35:06;6.43;;;2.60;;
66175;SDS011;52977;44.816;20.538;2023-04-02T09:37:38;4.93;;;2.33;;
66175;SDS011;52977;44.816;20.538;2023-04-02T09:40:12;6.82;;;2.67;;
66175;SDS011;52977;44.816;20.538;2023-04-02T09:43:14;6.60;;;2.70;;
66175;SDS011;52977;44.816;20.538;2023-04-02T09:45:42;9.40;;;2.85;;
66175;SDS011;52977;44.816;20.538;2023-04-02T09:48:37;4.90;;;2.55;;
66175;SDS011;52977;44.816;20.538;2023-04-02T09:51:13;5.60;;;2.75;;
66175;SDS011;52977;44.816;20.538;2023-04-02T09:53:47;5.88;;;2.63;;
66175;SDS011;52977;44.816;20.538;2023-04-02T09:56:16;6.22;;;2.88;;
66175;SDS011;52977;44.816;20.538;2023-04-02T09:58:42;5.25;;;2.72;;
66175;SDS011;52977;44.816;20.538;2023-04-02T10:01:23;13.85;;;3.25;;
66175;SDS011;52977;44.816;20.538;2023-04-02T10:03:54;5.80;;;2.45;;
66175;SDS011;52977;44.816;20.538;2023-04-02T10:06:21;5.25;;;2.60;;
66175;SDS011;52977;44.816;20.538;2023-04-02T10:08:47;4.95;;;2.60;;
66175;SDS011;52977;44.816;20.538;2023-04-02T10:11:15;5.55;;;2.75;;
66175;SDS011;52977;44.816;20.538;2023-04-02T10:13:56;7.75;;;2.95;;
66175;SDS011;52977;44.816;20.538;2023-04-02T10:18:58;6.57;;;3.10;;
66175;SDS011;52977;44.816;20.538;2023-04-02T10:21:28;6.68;;;2.70;;
66175;SDS011;52977;44.816;20.538;2023-04-02T10:23:58;5.47;;;2.72;;
66175;SDS011;52977;44.816;20.538;2023-04-02T10:27:10;5.25;;;2.70;;
66175;SDS011;52977;44.816;20.538;2023-04-02T10:31:59;6.63;;;3.00;;
66175;SDS011;52977;44.816;20.538;2023-04-02T10:34:37;9.18;;;4.13;;
66175;SDS011;52977;44.816;20.538;2023-04-02T10:40:26;5.38;;;2.80;;
66175;SDS011;52977;44.816;20.538;2023-04-02T10:43:07;5.68;;;2.55;;
66175;SDS011;52977;44.816;20.538;2023-04-02T10:45:47;7.63;;;3.83;;
66175;SDS011;52977;44.816;20.538;2023-04-02T10:48:24;6.72;;;3.15;;
66175;SDS011;52977;44.816;20.538;2023-04-02T10:56:37;5.22;;;2.63;;
66175;SDS011;52977;44.816;20.538;2023-04-02T10:59:12;4.60;;;2.70;;
66175;SDS011;52977;44.816;20.538;2023-04-02T11:01:41;5.38;;;2.35;;
66175;SDS011;52977;44.816;20.538;2023-04-02T11:04:21;5.68;;;2.58;;
66175;SDS011;52977;44.816;20.538;2023-04-02T11:06:53;5.45;;;3.38;;
66175;SDS011;52977;44.816;20.538;2023-04-02T11:09:25;5.88;;;3.40;;
66175;SDS011;52977;44.816;20.538;2023-04-02T11:11:56;4.88;;;2.53;;
66175;SDS011;52977;44.816;20.538;2023-04-02T11:14:27;5.32;;;2.53;;
66175;SDS011;52977;44.816;20.538;2023-04-02T11:16:55;4.10;;;2.33;;
66175;SDS011;52977;44.816;20.538;2023-04-02T11:19:27;3.47;;;1.80;;
66175;SDS011;52977;44.816;20.538;2023-04-02T11:22:30;4.03;;;2.33;;
66175;SDS011;52977;44.816;20.538;2023-04-02T11:24:53;3.55;;;1.95;;
66175;SDS011;52977;44.816;20.538;2023-04-02T11:27:28;6.47;;;2.10;;
66175;SDS011;52977;44.816;20.538;2023-04-02T11:30:01;6.43;;;2.38;;
66175;SDS011;52977;44.816;20.538;2023-04-02T11:37:53;4.55;;;2.28;;
66175;SDS011;52977;44.816;20.538;2023-04-02T11:45:58;5.23;;;1.83;;
66175;SDS011;52977;44.816;20.538;2023-04-02T11:48:47;3.67;;;2.22;;
66175;SDS011;52977;44.816;20.538;2023-04-02T11:53:48;4.93;;;2.53;;
66175;SDS011;52977;44.816;20.538;2023-04-02T11:56:17;5.30;;;2.55;;
66175;SDS011;52977;44.816;20.538;2023-04-02T12:02:02;5.80;;;3.15;;
66175;SDS011;52977;44.816;20.538;2023-04-02T12:04:54;7.70;;;2.58;;
66175;SDS011;52977;44.816;20.538;2023-04-02T12:11:11;4.68;;;2.33;;
66175;SDS011;52977;44.816;20.538;2023-04-02T12:16:04;5.15;;;2.13;;
66175;SDS011;52977;44.816;20.538;2023-04-02T12:18:32;5.55;;;1.90;;
66175;SDS011;52977;44.816;20.538;2023-04-02T12:21:00;4.25;;;1.50;;
66175;SDS011;52977;44.816;20.538;2023-04-02T12:23:31;3.00;;;1.35;;
66175;SDS011;52977;44.816;20.538;2023-04-02T12:26:00;3.17;;;1.30;;
66175;SDS011;52977;44.816;20.538;2023-04-02T12:28:28;3.17;;;1.60;;
66175;SDS011;52977;44.816;20.538;2023-04-02T12:33:33;5.50;;;2.03;;
66175;SDS011;52977;44.816;20.538;2023-04-02T12:36:21;4.65;;;1.85;;
66175;SDS011;52977;44.816;20.538;2023-04-02T12:38:55;3.90;;;1.85;;
66175;SDS011;52977;44.816;20.538;2023-04-02T12:43:57;3.40;;;1.42;;
66175;SDS011;52977;44.816;20.538;2023-04-02T12:46:40;3.67;;;0.93;;
66175;SDS011;52977;44.816;20.538;2023-04-02T12:49:11;4.95;;;1.50;;
66175;SDS011;52977;44.816;20.538;2023-04-02T12:52:02;4.78;;;1.75;;
66175;SDS011;52977;44.816;20.538;2023-04-02T12:54:33;5.40;;;1.75;;
66175;SDS011;52977;44.816;20.538;2023-04-02T12:59:49;5.03;;;1.13;;
66175;SDS011;52977;44.816;20.538;2023-04-02T13:02:17;2.72;;;1.05;;
66175;SDS011;52977;44.816;20.538;2023-04-02T13:07:19;2.63;;;1.00;;
66175;SDS011;52977;44.816;20.538;2023-04-02T13:09:48;3.35;;;1.50;;
66175;SDS011;52977;44.816;20.538;2023-04-02T13:12:35;5.82;;;1.90;;
66175;SDS011;52977;44.816;20.538;2023-04-02T13:15:35;5.03;;;1.75;;
66175;SDS011;52977;44.816;20.538;2023-04-02T13:26:00;9.45;;;3.90;;
66175;SDS011;52977;44.816;20.538;2023-04-02T13:28:33;9.20;;;2.50;;
66175;SDS011;52977;44.816;20.538;2023-04-02T13:30:59;5.28;;;2.15;;
66175;SDS011;52977;44.816;20.538;2023-04-02T13:33:24;4.03;;;1.63;;
66175;SDS011;52977;44.816;20.538;2023-04-02T13:35:50;2.92;;;1.20;;
66175;SDS011;52977;44.816;20.538;2023-04-02T13:38:16;5.70;;;2.10;;
66175;SDS011;52977;44.816;20.538;2023-04-02T13:40:41;4.22;;;1.00;;
66175;SDS011;52977;44.816;20.538;2023-04-02T13:43:09;3.20;;;1.20;;
66175;SDS011;52977;44.816;20.538;2023-04-02T13:45:45;2.92;;;0.90;;
66175;SDS011;52977;44.816;20.538;2023-04-02T13:48:13;3.50;;;1.20;;
66175;SDS011;52977;44.816;20.538;2023-04-02T13:50:40;3.55;;;1.40;;
66175;SDS011;52977;44.816;20.538;2023-04-02T13:53:07;4.40;;;1.92;;
66175;SDS011;52977;44.816;20.538;2023-04-02T13:55:37;6.78;;;2.90;;
66175;SDS011;52977;44.816;20.538;2023-04-02T13:58:06;6.50;;;2.60;;
66175;SDS011;52977;44.816;20.538;2023-04-02T14:00:34;7.35;;;3.20;;
66175;SDS011;52977;44.816;20.538;2023-04-02T14:03:05;7.60;;;3.35;;
66175;SDS011;52977;44.816;20.538;2023-04-02T14:27:28;4.70;;;2.38;;
66175;SDS011;52977;44.816;20.538;2023-04-02T14:30:09;5.60;;;2.55;;
66175;SDS011;52977;44.816;20.538;2023-04-02T14:32:42;5.68;;;2.25;;
66175;SDS011;52977;44.816;20.538;2023-04-02T14:40:35;4.32;;;1.92;;
66175;SDS011;52977;44.816;20.538;2023-04-02T14:43:12;3.65;;;1.80;;
66175;SDS011;52977;44.816;20.538;2023-04-02T14:51:47;5.30;;;1.98;;
66175;SDS011;52977;44.816;20.538;2023-04-02T14:59:39;6.28;;;2.75;;
66175;SDS011;52977;44.816;20.538;2023-04-02T15:07:54;5.05;;;2.60;;
66175;SDS011;52977;44.816;20.538;2023-04-02T15:10:29;5.78;;;2.60;;
66175;SDS011;52977;44.816;20.538;2023-04-02T15:12:59;5.07;;;2.30;;
66175;SDS011;52977;44.816;20.538;2023-04-02T15:15:41;5.30;;;1.92;;
66175;SDS011;52977;44.816;20.538;2023-04-02T15:18:14;4.40;;;1.77;;
66175;SDS011;52977;44.816;20.538;2023-04-02T15:20:44;2.83;;;1.40;;
66175;SDS011;52977;44.816;20.538;2023-04-02T15:25:55;3.45;;;1.70;;
66175;SDS011;52977;44.816;20.538;2023-04-02T15:31:05;3.92;;;1.90;;
66175;SDS011;52977;44.816;20.538;2023-04-02T15:33:44;4.25;;;1.73;;
66175;SDS011;52977;44.816;20.538;2023-04-02T15:44:43;4.53;;;2.22;;
66175;SDS011;52977;44.816;20.538;2023-04-02T15:50:29;9.23;;;3.00;;
66175;SDS011;52977;44.816;20.538;2023-04-02T15:53:25;8.13;;;3.35;;
66175;SDS011;52977;44.816;20.538;2023-04-02T15:58:42;5.72;;;2.65;;
66175;SDS011;52977;44.816;20.538;2023-04-02T16:12:44;6.32;;;2.33;;
66175;SDS011;52977;44.816;20.538;2023-04-02T16:15:29;7.03;;;2.40;;
66175;SDS011;52977;44.816;20.538;2023-04-02T16:18:02;5.75;;;3.00;;
66175;SDS011;52977;44.816;20.538;2023-04-02T16:20:38;7.88;;;3.67;;
66175;SDS011;52977;44.816;20.538;2023-04-02T16:23:19;8.05;;;3.95;;
66175;SDS011;52977;44.816;20.538;2023-04-02T16:28:26;10.20;;;4.18;;
66175;SDS011;52977;44.816;20.538;2023-04-02T16:33:59;5.63;;;2.60;;
66175;SDS011;52977;44.816;20.538;2023-04-02T16:36:38;6.32;;;2.63;;
66175;SDS011;52977;44.816;20.538;2023-04-02T16:39:19;4.68;;;2.38;;
66175;SDS011;52977;44.816;20.538;2023-04-02T16:47:27;4.20;;;1.70;;
66175;SDS011;52977;44.816;20.538;2023-04-02T16:50:15;5.22;;;2.30;;
66175;SDS011;52977;44.816;20.538;2023-04-02T16:53:05;3.60;;;1.80;;
66175;SDS011;52977;44.816;20.538;2023-04-02T17:01:29;4.28;;;1.95;;
66175;SDS011;52977;44.816;20.538;2023-04-02T17:12:14;6.05;;;3.13;;
66175;SDS011;52977;44.816;20.538;2023-04-02T17:14:55;7.20;;;3.15;;
66175;SDS011;52977;44.816;20.538;2023-04-02T17:17:28;5.20;;;2.90;;
66175;SDS011;52977;44.816;20.538;2023-04-02T17:19:58;6.63;;;3.63;;
66175;SDS011;52977;44.816;20.538;2023-04-02T17:22:25;6.72;;;3.40;;
66175;SDS011;52977;44.816;20.538;2023-04-02T17:24:57;7.22;;;3.28;;
66175;SDS011;52977;44.816;20.538;2023-04-02T17:30:15;6.85;;;3.35;;
66175;SDS011;52977;44.816;20.538;2023-04-02T17:32:48;7.13;;;3.72;;
66175;SDS011;52977;44.816;20.538;2023-04-02T17:41:35;11.75;;;5.60;;
66175;SDS011;52977;44.816;20.538;2023-04-02T17:50:14;10.45;;;4.63;;
66175;SDS011;52977;44.816;20.538;2023-04-02T17:52:47;7.80;;;3.65;;
66175;SDS011;52977;44.816;20.538;2023-04-02T18:06:36;12.02;;;5.53;;
66175;SDS011;52977;44.816;20.538;2023-04-02T18:17:52;12.70;;;5.32;;
66175;SDS011;52977;44.816;20.538;2023-04-02T18:20:27;10.25;;;4.93;;
66175;SDS011;52977;44.816;20.538;2023-04-02T18:47:43;8.15;;;3.88;;
66175;SDS011;52977;44.816;20.538;2023-04-02T18:50:51;7.35;;;3.80;;
66175;SDS011;52977;44.816;20.538;2023-04-02T18:53:24;7.40;;;4.10;;
66175;SDS011;52977;44.816;20.538;2023-04-02T18:56:02;6.72;;;3.45;;
66175;SDS011;52977;44.816;20.538;2023-04-02T18:58:38;7.28;;;2.95;;
66175;SDS011;52977;44.816;20.538;2023-04-02T19:01:12;5.93;;;3.13;;
66175;SDS011;52977;44.816;20.538;2023-04-02T19:06:25;6.10;;;3.15;;
66175;SDS011;52977;44.816;20.538;2023-04-02T19:09:23;7.45;;;3.85;;
66175;SDS011;52977;44.816;20.538;2023-04-02T19:11:55;7.25;;;4.13;;
66175;SDS011;52977;44.816;20.538;2023-04-02T19:14:22;8.57;;;4.57;;
66175;SDS011;52977;44.816;20.538;2023-04-02T19:19:21;13.73;;;6.25;;
66175;SDS011;52977;44.816;20.538;2023-04-02T19:27:06;13.32;;;6.47;;
66175;SDS011;52977;44.816;20.538;2023-04-02T19:30:26;14.65;;;7.25;;
66175;SDS011;52977;44.816;20.538;2023-04-02T19:41:47;14.05;;;7.10;;
66175;SDS011;52977;44.816;20.538;2023-04-02T19:44:37;14.05;;;6.70;;
66175;SDS011;52977;44.816;20.538;2023-04-02T19:47:09;17.13;;;8.07;;
66175;SDS011;52977;44.816;20.538;2023-04-02T19:49:36;19.73;;;7.30;;
66175;SDS011;52977;44.816;20.538;2023-04-02T19:52:02;16.48;;;7.47;;
66175;SDS011;52977;44.816;20.538;2023-04-02T19:56:59;18.45;;;8.35;;
66175;SDS011;52977;44.816;20.538;2023-04-02T19:59:26;16.67;;;8.32;;
66175;SDS011;52977;44.816;20.538;2023-04-02T20:01:53;20.63;;;9.82;;
66175;SDS011;52977;44.816;20.538;2023-04-02T20:04:22;21.05;;;10.55;;
66175;SDS011;52977;44.816;20.538;2023-04-02T20:06:48;20.08;;;10.25;;
66175;SDS011;52977;44.816;20.538;2023-04-02T20:09:15;19.40;;;9.32;;
66175;SDS011;52977;44.816;20.538;2023-04-02T20:11:41;17.50;;;9.10;;
66175;SDS011;52977;44.816;20.538;2023-04-02T20:14:07;16.50;;;8.27;;
66175;SDS011;52977;44.816;20.538;2023-04-02T20:16:33;15.77;;;7.60;;
66175;SDS011;52977;44.816;20.538;2023-04-02T20:19:01;14.30;;;6.15;;
66175;SDS011;52977;44.816;20.538;2023-04-02T20:21:27;14.40;;;7.40;;
66175;SDS011;52977;44.816;20.538;2023-04-02T20:23:59;15.90;;;6.20;;
66175;SDS011;52977;44.816;20.538;2023-04-02T20:26:25;14.38;;;6.35;;
66175;SDS011;52977;44.816;20.538;2023-04-02T20:28:52;13.73;;;5.97;;
66175;SDS011;52977;44.816;20.538;2023-04-02T20:31:18;12.98;;;5.90;;
66175;SDS011;52977;44.816;20.538;2023-04-02T20:33:44;11.88;;;5.60;;
66175;SDS011;52977;44.816;20.538;2023-04-02T20:36:12;9.25;;;5.28;;
66175;SDS011;52977;44.816;20.538;2023-04-02T20:38:40;10.48;;;5.47;;
66175;SDS011;52977;44.816;20.538;2023-04-02T20:41:07;10.30;;;4.72;;
66175;SDS011;52977;44.816;20.538;2023-04-02T20:43:34;8.15;;;4.28;;
66175;SDS011;52977;44.816;20.538;2023-04-02T20:46:02;11.07;;;4.22;;
66175;SDS011;52977;44.816;20.538;2023-04-02T20:48:30;9.68;;;4.18;;
66175;SDS011;52977;44.816;20.538;2023-04-02T20:50:58;8.80;;;4.30;;
66175;SDS011;52977;44.816;20.538;2023-04-02T20:53:30;8.70;;;4.32;;
66175;SDS011;52977;44.816;20.538;2023-04-02T20:56:02;8.90;;;4.93;;
66175;SDS011;52977;44.816;20.538;2023-04-02T20:58:31;9.50;;;4.57;;